Terminal Aerodrome Forecast
Issued by NWS

Home | Current Version | Previous Version | Text Only | Print | Product List | Glossary On
Versions: 1 2 3 4 5 6 7 8 9 10 11 12 13 14 15 16 17 18 19 20 21 22 23 24 25 26 27 28 29 30 31 32 33 34 35 36 37 38
000
FTUS45 KBOU 261130
TAFAPA
TAF
KAPA 261130Z 2612/2712 18006KT P6SM SCT020 SCT220
     FM261500 21006KT P6SM SCT220
     FM261700 31006KT P6SM SCT220
     FM262000 33010KT P6SM SCT090 BKN200
     FM270200 10008KT P6SM BKN100 BKN150
     FM270600 18008KT P6SM BKN090 BKN140=

USA.gov is the U.S. government's official web portal to all federal, state and local government web resources and services.